createdAt,value
2022-08-09T00:01:52.975Z,4
2022-08-09T00:05:00.937Z,8
2022-08-09T00:08:37.867Z,6
2022-08-09T00:11:55.129Z,6
2022-08-09T00:14:48.466Z,6
2022-08-09T00:18:04.878Z,6
2022-08-09T00:20:59.129Z,6
2022-08-09T00:24:41.452Z,9
2022-08-09T00:27:48.042Z,7
2022-08-09T00:30:52.076Z,6
2022-08-09T00:33:20.328Z,6
2022-08-09T00:35:42.739Z,7
2022-08-09T00:38:45.727Z,7
2022-08-09T00:44:09.004Z,5
2022-08-09T00:44:56.329Z,6
2022-08-09T00:48:38.707Z,8
2022-08-09T00:51:54.665Z,6
2022-08-09T00:54:49.300Z,7
2022-08-09T00:57:54.634Z,8
2022-08-09T01:01:00.010Z,11
2022-08-09T01:04:44.081Z,7
2022-08-09T01:07:57.517Z,7
2022-08-09T01:10:52.957Z,7
2022-08-09T01:13:59.803Z,7
2022-08-09T01:17:40.596Z,6
2022-08-09T01:20:45.944Z,12
2022-08-09T01:24:01.449Z,5
2022-08-09T01:26:56.548Z,8
2022-08-09T01:30:51.196Z,8
2022-08-09T01:33:44.254Z,8
2022-08-09T01:36:41.343Z,7
2022-08-09T01:39:46.720Z,8
2022-08-09T01:42:51.973Z,7
2022-08-09T01:45:57.951Z,8
2022-08-09T01:49:39.928Z,9
2022-08-09T01:52:44.958Z,7
2022-08-09T01:55:50.249Z,8
2022-08-09T01:58:55.589Z,6
2022-08-09T02:02:01.281Z,7
2022-08-09T02:05:53.818Z,7
2022-08-09T02:08:58.353Z,6
2022-08-09T02:11:53.876Z,7
2022-08-09T02:14:59.186Z,9
2022-08-09T02:18:42.717Z,8
2022-08-09T02:21:46.907Z,7
2022-08-09T02:24:52.179Z,7
2022-08-09T02:28:00.712Z,9
2022-08-09T02:31:39.878Z,7
2022-08-09T02:36:02.208Z,7
2022-08-09T02:38:56.431Z,5
2022-08-09T02:42:38.805Z,9
2022-08-09T02:45:44.101Z,8
2022-08-09T02:48:51.043Z,7
2022-08-09T02:51:54.726Z,8
2022-08-09T02:55:00.030Z,8
2022-08-09T02:58:42.408Z,7
2022-08-09T03:02:05.261Z,9
2022-08-09T03:04:53.024Z,8
2022-08-09T03:07:58.359Z,10
2022-08-09T03:12:05.138Z,7
2022-08-09T03:14:46.013Z,7
2022-08-09T03:17:53.970Z,8
2022-08-09T03:20:56.629Z,8
2022-08-09T03:24:42.321Z,9
2022-08-09T03:27:44.882Z,8
2022-08-09T03:30:49.631Z,7
2022-08-09T03:35:44.524Z,8
2022-08-09T03:38:43.534Z,8
2022-08-09T03:41:48.846Z,8
2022-08-09T03:44:53.891Z,11
2022-08-09T03:47:59.187Z,14
2022-08-09T03:51:44.173Z,10
2022-08-09T03:54:46.879Z,7
2022-08-09T03:57:53.726Z,11
2022-08-09T04:00:57.538Z,12
2022-08-09T04:04:39.862Z,5
2022-08-09T04:07:47.967Z,8
2022-08-09T04:10:50.478Z,12
2022-08-09T04:14:38.089Z,8
2022-08-09T04:17:38.195Z,9
2022-08-09T04:20:43.464Z,9
2022-08-09T04:23:54.042Z,10
2022-08-09T04:26:54.075Z,7
2022-08-09T04:29:59.416Z,8
2022-08-09T04:33:47.076Z,9
2022-08-09T04:36:42.410Z,13
2022-08-09T04:39:44.216Z,9
2022-08-09T04:42:49.519Z,9
2022-08-09T04:45:54.806Z,10
2022-08-09T04:49:00.158Z,9
2022-08-09T04:52:42.509Z,10
2022-08-09T04:55:58.576Z,11
2022-08-09T04:58:53.119Z,9
2022-08-09T05:01:58.484Z,11
2022-08-09T05:05:51.652Z,8
2022-08-09T05:08:47.997Z,12
2022-08-09T05:11:51.421Z,9
2022-08-09T05:14:56.779Z,9
2022-08-09T05:18:42.990Z,9
2022-08-09T05:21:46.456Z,11
2022-08-09T05:24:49.715Z,10
2022-08-09T05:27:55.301Z,11
2022-08-09T05:31:00.364Z,10
2022-08-09T05:34:42.980Z,10
2022-08-09T05:37:46.477Z,13
2022-08-09T05:40:48.817Z,10
2022-08-09T05:43:50.478Z,10
2022-08-09T05:46:55.775Z,10
2022-08-09T05:50:24.761Z,12
2022-08-09T05:53:51.794Z,9
2022-08-09T05:56:54.361Z,9
2022-08-09T05:59:54.075Z,10
2022-08-09T06:02:59.504Z,10
2022-08-09T06:06:45.297Z,10
2022-08-09T06:09:55.283Z,12
2022-08-09T06:12:57.859Z,9
2022-08-09T06:15:57.709Z,10
2022-08-09T06:19:40.076Z,9
2022-08-09T06:22:45.599Z,10
2022-08-09T06:25:50.650Z,10
2022-08-09T06:28:59.819Z,14
2022-08-09T06:32:53.875Z,11
2022-08-09T06:35:35.935Z,9
2022-08-09T06:38:43.060Z,11
2022-08-09T06:42:08.427Z,11
2022-08-09T06:44:51.938Z,12
2022-08-09T06:47:58.114Z,13
2022-08-09T06:51:40.117Z,11
2022-08-09T06:54:44.395Z,14
2022-08-09T06:58:01.271Z,14
2022-08-09T07:00:58.296Z,16
2022-08-09T07:04:37.406Z,14
2022-08-09T07:07:59.270Z,13
2022-08-09T07:10:48.029Z,14
2022-08-09T07:14:03.826Z,15
2022-08-09T07:16:58.705Z,12
2022-08-09T07:20:40.979Z,11
2022-08-09T07:23:46.583Z,12
2022-08-09T07:26:14.582Z,16
2022-08-09T07:29:01.222Z,13
2022-08-09T07:31:48.265Z,13
2022-08-09T07:34:53.448Z,13
2022-08-09T07:37:50.547Z,12
2022-08-09T07:41:11.297Z,12
2022-08-09T07:44:52.593Z,14
2022-08-09T07:47:49.719Z,15
2022-08-09T07:50:52.715Z,12
2022-08-09T07:54:06.102Z,12
2022-08-09T07:56:59.464Z,15
2022-08-09T08:00:55.918Z,14
2022-08-09T08:03:47.160Z,14
2022-08-09T08:06:55.692Z,16
2022-08-09T08:10:05.674Z,11
2022-08-09T08:13:45.212Z,14
2022-08-09T08:16:51.011Z,14
2022-08-09T08:19:50.746Z,17
2022-08-09T08:22:56.090Z,14
2022-08-09T08:26:42.281Z,13
2022-08-09T08:29:45.370Z,12
2022-08-09T08:32:52.390Z,12
2022-08-09T08:35:58.853Z,13
2022-08-09T08:38:51.513Z,15
2022-08-09T08:41:58.672Z,13
2022-08-09T08:45:39.177Z,13
2022-08-09T08:48:51.040Z,11
2022-08-09T08:52:00.639Z,15
2022-08-09T08:54:55.152Z,13
2022-08-09T08:58:00.425Z,11
2022-08-09T09:01:45.093Z,12
2022-08-09T09:04:52.641Z,13
2022-08-09T09:07:53.442Z,12
2022-08-09T09:10:58.741Z,12
2022-08-09T09:14:41.126Z,12
2022-08-09T09:17:48.861Z,11
2022-08-09T09:20:51.731Z,10
2022-08-09T09:23:57.427Z,11
2022-08-09T09:28:04.922Z,10
2022-08-09T09:30:44.723Z,12
2022-08-09T09:33:56.791Z,15
2022-08-09T09:38:38.326Z,14
2022-08-09T09:41:49.516Z,11
2022-08-09T09:44:48.948Z,14
2022-08-09T09:47:56.856Z,12
2022-08-09T09:50:59.599Z,11
2022-08-09T09:54:41.954Z,11
2022-08-09T09:58:01.932Z,10
2022-08-09T10:00:54.484Z,11
2022-08-09T10:03:59.716Z,10
2022-08-09T10:08:10.623Z,12
2022-08-09T10:10:45.564Z,10
2022-08-09T10:13:51.345Z,9
2022-08-09T10:17:00.116Z,20
2022-08-09T10:20:44.600Z,11
2022-08-09T10:23:43.906Z,11
2022-08-09T10:26:49.179Z,15
2022-08-09T10:30:29.635Z,13
2022-08-09T10:33:29.396Z,12
2022-08-09T10:36:42.435Z,12
2022-08-09T10:40:44.677Z,12
2022-08-09T10:42:45.890Z,12
2022-08-09T10:45:58.678Z,12
2022-08-09T10:48:55.230Z,11
2022-08-09T10:52:37.616Z,12
2022-08-09T10:55:49.433Z,12
2022-08-09T10:58:49.274Z,15
2022-08-09T11:03:03.392Z,14
2022-08-09T11:04:58.917Z,13
2022-08-09T11:08:43.832Z,12
2022-08-09T11:11:51.726Z,13
2022-08-09T11:14:51.840Z,14
2022-08-09T11:18:02.576Z,13
2022-08-09T11:21:41.354Z,10
2022-08-09T11:24:44.877Z,11
2022-08-09T11:28:03.389Z,12
2022-08-09T11:30:55.467Z,13
2022-08-09T11:34:00.742Z,12
2022-08-09T11:37:40.779Z,12
2022-08-09T11:40:40.243Z,12
2022-08-09T11:43:45.571Z,10
2022-08-09T11:46:50.870Z,10
2022-08-09T11:50:52.669Z,12
2022-08-09T11:54:00.136Z,11
2022-08-09T11:56:47.952Z,14
2022-08-09T12:00:53.944Z,11
2022-08-09T12:02:54.605Z,12
2022-08-09T12:05:59.826Z,10
2022-08-09T12:09:43.968Z,12
2022-08-09T12:12:47.481Z,11
2022-08-09T12:15:52.945Z,12
2022-08-09T12:18:58.084Z,13
2022-08-09T12:23:12.839Z,10
2022-08-09T12:25:49.371Z,14
2022-08-09T12:29:01.211Z,8
2022-08-09T12:33:51.513Z,11
2022-08-09T12:36:52.951Z,10
2022-08-09T12:39:50.065Z,10
2022-08-09T12:42:55.318Z,12
2022-08-09T12:46:00.815Z,12
2022-08-09T12:49:51.161Z,14
2022-08-09T12:53:09.821Z,11
2022-08-09T12:56:13.623Z,12
2022-08-09T12:58:58.979Z,11
2022-08-09T13:03:20.757Z,11
2022-08-09T13:05:50.996Z,10
2022-08-09T13:08:53.146Z,12
2022-08-09T13:12:01.783Z,11
2022-08-09T13:15:39.629Z,10
2022-08-09T13:18:44.931Z,10
2022-08-09T13:22:35.084Z,12
2022-08-09T13:24:55.874Z,9
2022-08-09T13:28:01.095Z,11
2022-08-09T13:32:14.685Z,10
2022-08-09T13:34:48.525Z,11
2022-08-09T13:41:21.848Z,8
2022-08-09T13:42:42.314Z,13
2022-08-09T13:46:08.323Z,11
2022-08-09T13:48:52.778Z,11
2022-08-09T13:51:58.778Z,12
2022-08-09T13:55:40.471Z,9
2022-08-09T13:58:45.819Z,10
2022-08-09T14:01:55.885Z,9
2022-08-09T14:04:59.452Z,9
2022-08-09T14:08:38.795Z,9
2022-08-09T14:11:47.047Z,7
2022-08-09T14:14:53.617Z,7
2022-08-09T14:18:06.614Z,8
2022-08-09T14:21:00.057Z,11
2022-08-09T14:24:46.997Z,9
2022-08-09T14:27:57.294Z,8
2022-08-09T14:30:53.025Z,7
2022-08-09T14:33:58.340Z,8
2022-08-09T14:37:40.982Z,9
2022-08-09T14:40:39.000Z,9
2022-08-09T14:43:47.859Z,11
2022-08-09T14:46:58.399Z,8
2022-08-09T14:50:01.665Z,11
2022-08-09T14:52:59.067Z,9
2022-08-09T14:56:53.600Z,9
2022-08-09T14:59:48.714Z,7
2022-08-09T15:02:52.250Z,6
2022-08-09T15:05:20.295Z,8
2022-08-09T15:07:54.595Z,8
2022-08-09T15:11:00.180Z,8
2022-08-09T15:14:04.541Z,7
2022-08-09T15:17:46.228Z,10
2022-08-09T15:21:59.121Z,8
2022-08-09T15:23:56.279Z,7
2022-08-09T15:26:57.605Z,7
2022-08-09T15:30:47.906Z,8
2022-08-09T15:34:04.497Z,7
2022-08-09T15:36:50.448Z,9
2022-08-09T15:39:18.766Z,6
2022-08-09T15:41:38.790Z,7
2022-08-09T15:44:44.084Z,6
2022-08-09T15:47:52.736Z,8
2022-08-09T15:50:54.766Z,10
2022-08-09T15:54:03.008Z,7
2022-08-09T15:57:44.121Z,8
2022-08-09T16:00:47.794Z,8
2022-08-09T16:03:53.294Z,8
2022-08-09T16:06:58.326Z,12
2022-08-09T16:10:55.413Z,9
2022-08-09T16:14:02.443Z,9
2022-08-09T16:16:51.375Z,8
2022-08-09T16:20:04.285Z,9
2022-08-09T16:23:38.999Z,7
2022-08-09T16:26:48.797Z,9
2022-08-09T16:29:50.738Z,7
2022-08-09T16:32:55.096Z,8
2022-08-09T16:36:03.165Z,7
2022-08-09T16:39:48.072Z,10
2022-08-09T16:42:44.887Z,7
2022-08-09T16:45:45.243Z,9
2022-08-09T16:48:52.987Z,10
2022-08-09T16:51:55.659Z,11
2022-08-09T16:55:00.996Z,8
2022-08-09T16:58:49.988Z,10
2022-08-09T17:01:51.207Z,9
2022-08-09T17:04:53.979Z,8
2022-08-09T17:08:42.545Z,9
2022-08-09T17:11:42.413Z,8
2022-08-09T17:14:48.437Z,7
2022-08-09T17:17:52.263Z,8
2022-08-09T17:20:57.582Z,10
2022-08-09T17:24:41.445Z,7
2022-08-09T17:27:48.655Z,9
2022-08-09T17:30:50.555Z,9
2022-08-09T17:33:55.902Z,8
2022-08-09T17:38:03.085Z,8
2022-08-09T17:40:06.543Z,10
2022-08-09T17:43:40.937Z,9
2022-08-09T17:46:48.614Z,10
2022-08-09T17:49:54.346Z,8
2022-08-09T17:52:56.641Z,10
2022-08-09T17:56:38.964Z,9
2022-08-09T17:59:44.294Z,8
2022-08-09T18:02:50.310Z,8
2022-08-09T18:05:54.926Z,10
2022-08-09T18:09:00.225Z,8
2022-08-09T18:13:38.129Z,9
2022-08-09T18:15:50.558Z,10
2022-08-09T18:18:53.226Z,10
2022-08-09T18:21:58.536Z,11
2022-08-09T18:25:51.325Z,10
2022-08-09T18:30:36.455Z,10
2022-08-09T18:31:55.435Z,8
2022-08-09T18:34:56.846Z,11
2022-08-09T18:38:39.210Z,11
2022-08-09T18:42:50.448Z,12
2022-08-09T18:46:45.597Z,11
2022-08-09T18:49:41.387Z,15
2022-08-09T18:52:43.438Z,13
2022-08-09T18:55:56.734Z,12
2022-08-09T18:58:55.431Z,12
2022-08-09T19:01:59.398Z,13
2022-08-09T19:05:49.232Z,14
2022-08-09T19:08:55.128Z,16
2022-08-09T19:11:52.382Z,19
2022-08-09T19:14:57.674Z,19
2022-08-09T19:18:43.909Z,20
2022-08-09T19:21:47.987Z,23
2022-08-09T19:25:09.252Z,23
2022-08-09T19:27:56.342Z,13
2022-08-09T19:31:01.265Z,13
2022-08-09T19:34:45.582Z,12
2022-08-09T19:37:54.649Z,11
2022-08-09T19:40:46.151Z,10
2022-08-09T19:43:58.507Z,11
2022-08-09T19:46:56.714Z,11
2022-08-09T19:50:48.629Z,13
2022-08-09T19:53:45.187Z,11
2022-08-09T19:56:49.721Z,10
2022-08-09T19:59:58.664Z,11
2022-08-09T20:04:07.990Z,15
2022-08-09T20:06:42.761Z,16
2022-08-09T20:09:48.077Z,13
2022-08-09T20:12:53.337Z,13
2022-08-09T20:16:32.482Z,14
2022-08-09T20:19:43.557Z,12
2022-08-09T20:22:46.630Z,13
2022-08-09T20:25:53.306Z,13
2022-08-09T20:28:56.921Z,15
2022-08-09T20:32:39.328Z,10
2022-08-09T20:35:45.445Z,11
2022-08-09T20:39:19.128Z,14
2022-08-09T20:41:50.282Z,10
2022-08-09T20:43:38.246Z,12
2022-08-09T20:46:44.862Z,13
2022-08-09T20:49:48.841Z,13
2022-08-09T20:52:54.189Z,13
2022-08-09T20:56:00.525Z,12
2022-08-09T20:58:27.701Z,12
2022-08-09T21:01:02.366Z,12
2022-08-09T21:04:08.566Z,12
2022-08-09T21:07:44.392Z,9
2022-08-09T21:10:53.152Z,9
2022-08-09T21:15:51.853Z,12
2022-08-09T21:19:01.669Z,10
2022-08-09T21:21:56.877Z,16
2022-08-09T21:25:38.575Z,11
2022-08-09T21:28:51.932Z,12
2022-08-09T21:31:49.800Z,10
2022-08-09T21:34:54.406Z,17
2022-08-09T21:38:00.440Z,9
2022-08-09T21:42:00.111Z,10
2022-08-09T21:44:39.152Z,12
2022-08-09T21:47:44.518Z,11
2022-08-09T21:50:51.299Z,13
2022-08-09T21:53:55.108Z,12
2022-08-09T21:57:00.437Z,11
2022-08-09T22:00:42.823Z,12
2022-08-09T22:03:48.588Z,11
2022-08-09T22:06:59.040Z,10
2022-08-09T22:09:58.785Z,12
2022-08-09T22:13:42.387Z,10
2022-08-09T22:16:46.428Z,12
2022-08-09T22:19:58.195Z,11
2022-08-09T22:22:57.053Z,12
2022-08-09T22:26:39.387Z,11
2022-08-09T22:29:46.422Z,11
2022-08-09T22:32:50.045Z,11
2022-08-09T22:36:00.266Z,12
2022-08-09T22:39:00.791Z,12
2022-08-09T22:44:01.023Z,11
2022-08-09T22:48:07.160Z,12
2022-08-09T22:49:59.599Z,17
2022-08-09T22:53:44.536Z,15
2022-08-09T22:56:47.262Z,11
2022-08-09T22:59:56.487Z,13
2022-08-09T23:02:58.390Z,14
2022-08-09T23:06:40.274Z,13
2022-08-09T23:09:45.573Z,12
2022-08-09T23:12:50.849Z,10
2022-08-09T23:16:02.523Z,15
2022-08-09T23:19:01.470Z,14
2022-08-09T23:22:43.861Z,13
2022-08-09T23:25:49.215Z,13
2022-08-09T23:28:54.521Z,12
2022-08-09T23:31:59.808Z,12
2022-08-09T23:36:05.297Z,17
2022-08-09T23:38:48.750Z,12
2022-08-09T23:41:52.778Z,11
2022-08-09T23:44:49.922Z,12
2022-08-09T23:47:55.211Z,13
2022-08-09T23:51:00.560Z,13
2022-08-09T23:54:42.916Z,12
2022-08-09T23:58:08.159Z,13
